Latest Weather Observations for Melbourne (Olympic Park)

IDV60901

Issued at 6:21 am EDT Thursday 8 December 2022 (issued every 10 minutes, with the page automatically refreshed every 10 minutes)

About weather observations | Map of Melbourne area stations | Latest observations for Melbourne area | Other Formats
Station Details ID: 086338 Name: MELBOURNE (OLYMPIC PARK) Lat: -37.83 Lon: 144.98 Height: 7.53 m
Data from the previous 72 hours. | See also: Recent months at Melbourne (Olympic Park)
Date/Time
EDT
Temp
°C
App
Temp
°C
Dew
Point
°C
Rel
Hum
%
Delta-T
°C
Wind Press
QNH
hPa
Press
MSL
hPa
Rain since
9am
mm
Dir  Spd
km/h
Gust
km/h
Spd
kts
Gust
kts
08/06:00am 9.8 6.4 4.2 68 2.5 W 11 19 6 10 1011.1 1011.1 0.0
08/05:30am 9.5 6.1 3.9 68 2.5 W 11 20 6 11 1010.8 1010.8 0.0
08/05:00am 9.5 6.0 3.7 67 2.5 WSW 11 20 6 11 1010.8 1010.8 0.0
08/04:30am 9.8 6.0 3.8 66 2.6 WSW 13 24 7 13 1010.8 1010.8 0.0
08/04:00am 10.2 6.4 3.7 64 2.9 W 13 24 7 13 1010.7 1010.7 0.0
08/03:30am 10.1 6.6 3.6 64 2.8 W 11 26 6 14 1010.5 1010.5 0.0
08/03:00am 10.4 6.6 4.1 65 2.8 W 13 22 7 12 1010.3 1010.3 0.0
08/02:30am 10.4 6.9 3.4 62 3.1 W 11 26 6 14 1010.4 1010.4 0.0
08/02:00am 10.7 7.3 4.0 63 3.0 W 11 24 6 13 1010.5 1010.5 0.0
08/01:30am 10.6 6.7 3.6 62 3.1 W 13 28 7 15 1010.6 1010.6 0.0
08/01:00am 10.8 7.9 4.5 65 2.8 W 9 17 5 9 1010.7 1010.7 0.0
08/12:30am 11.4 8.0 4.2 61 3.2 WSW 11 28 6 15 1011.0 1011.0 0.0
08/12:00am 11.6 8.1 3.4 57 3.6 W 11 24 6 13 1010.6 1010.6 0.0
 
Date/Time
EDT
Temp
°C
App
Temp
°C
Dew
Point
°C
Rel
Hum
%
Delta-T
°C
Wind Press
QNH
hPa
Press
MSL
hPa
Rain since
9am
mm
Dir  Spd
km/h
Gust
km/h
Spd
kts
Gust
kts
07/11:30pm 12.6 8.5 4.3 57 3.8 SW 15 35 8 19 1010.5 1010.5 0.0
07/11:00pm 12.8 9.4 4.0 55 4.0 WSW 11 26 6 14 1010.2 1010.2 0.0
07/10:30pm 12.9 9.2 4.6 57 3.8 W 13 28 7 15 1009.7 1009.7 0.0
07/10:00pm 13.4 9.6 6.0 61 3.5 WSW 15 35 8 19 1009.2 1009.2 0.0
07/09:30pm 13.7 10.1 6.8 63 3.3 WSW 15 28 8 15 1008.5 1008.5 0.0
07/09:00pm 14.0 10.5 7.3 64 3.3 W 15 33 8 18 1007.7 1007.7 0.0
07/08:30pm 13.8 11.1 8.8 72 2.5 W 13 32 7 17 1007.3 1007.3 0.0
07/08:00pm 14.6 11.2 7.6 63 3.5 W 15 32 8 17 1006.8 1006.8 0.0
07/07:30pm 16.9 13.4 7.0 52 4.9 SW 15 37 8 20 1005.8 1005.8 0.0
07/07:00pm 18.4 14.5 5.3 42 6.4 SSW 15 32 8 17 1004.8 1004.8 0.0
07/06:30pm 17.7 16.0 8.3 54 4.8 S 7 15 4 8 1004.3 1004.3 0.0
07/06:00pm 17.4 15.4 8.8 57 4.5 SSW 9 20 5 11 1004.3 1004.3 0.0
07/05:30pm 17.3 14.5 8.7 57 4.4 S 13 22 7 12 1004.5 1004.5 0.0
07/05:00pm 17.6 14.5 9.0 57 4.5 S 15 28 8 15 1004.6 1004.6 0.0
07/04:30pm 17.8 14.6 9.9 60 4.2 S 17 33 9 18 1004.6 1004.6 0.0
07/04:00pm 17.8 14.5 9.4 58 4.4 S 17 30 9 16 1004.4 1004.4 0.0
07/03:30pm 17.5 14.7 10.1 62 3.9 S 15 30 8 16 1004.6 1004.6 0.0
07/03:00pm 18.4 15.9 11.0 62 4.0 S 15 30 8 16 1004.4 1004.4 0.0
07/02:30pm 18.7 16.7 11.5 63 3.9 S 13 24 7 13 1004.2 1004.2 0.0
07/02:00pm 18.5 17.2 11.1 62 4.0 S 9 20 5 11 1004.3 1004.3 0.0
07/01:30pm 18.4 15.7 11.7 65 3.7 SSW 17 26 9 14 1004.6 1004.6 0.0
07/01:00pm 18.2 16.1 11.0 63 3.9 S 13 24 7 13 1004.5 1004.5 0.0
07/12:30pm 18.4 16.0 11.5 64 3.8 S 15 28 8 15 1004.6 1004.6 0.0
07/12:00pm 17.7 15.2 11.0 65 3.6 S 15 26 8 14 1004.8 1004.8 0.0
07/11:30am 17.9 16.3 11.5 66 3.5 SSW 11 20 6 11 1004.6 1004.6 0.0
07/11:00am 17.8 16.3 12.0 69 3.2 SSW 11 17 6 9 1004.3 1004.3 0.0
07/10:30am 17.3 15.6 11.3 68 3.2 S 11 20 6 11 1004.3 1004.3 0.0
07/10:00am 16.4 15.3 10.5 68 3.1 S 7 11 4 6 1004.3 1004.3 0.0
07/09:30am 15.9 14.4 10.4 70 2.9 S 9 13 5 7 1004.5 1004.5 0.0
07/09:00am 16.4 15.3 10.5 68 3.1 S 7 13 4 7 1004.5 1004.5 0.2
07/08:30am 16.2 16.3 10.3 68 3.1 CALM 0 0 0 0 1004.2 1004.2 0.2
07/08:00am 16.1 16.3 10.4 69 3.0 CALM 0 6 0 3 1004.1 1004.1 0.2
07/07:30am 15.8 16.0 10.6 71 2.8 CALM 0 0 0 0 1003.9 1003.9 0.2
07/07:00am 15.1 15.4 10.9 76 2.2 CALM 0 0 0 0 1003.8 1003.8 0.2
07/06:30am 13.5 13.8 10.9 84 1.4 CALM 0 0 0 0 1003.8 1003.8 0.2
07/06:00am 13.8 12.6 9.5 75 2.2 NNE 6 9 3 5 1003.7 1003.7 0.2
07/05:30am 14.2 12.3 9.2 72 2.5 N 9 11 5 6 1003.9 1003.9 0.2
07/05:00am 14.5 13.0 9.1 70 2.8 N 7 11 4 6 1003.7 1003.7 0.2
07/04:30am 14.5 13.0 9.1 70 2.8 NE 7 11 4 6 1003.8 1003.8 0.2
07/04:00am 14.4 12.9 8.6 68 2.9 NE 6 9 3 5 1004.0 1004.0 0.2
07/03:30am 13.9 13.6 8.7 71 2.6 CALM 0 0 0 0 1004.4 1004.4 0.2
07/03:00am 13.5 13.5 9.7 78 2.0 CALM 0 0 0 0 1004.8 1004.8 0.2
07/02:30am 13.4 13.3 9.6 78 1.9 CALM 0 0 0 0 1005.1 1005.1 0.2
07/02:00am 13.4 13.1 8.7 73 2.4 CALM 0 0 0 0 1005.4 1005.4 0.2
07/01:30am 13.3 13.1 9.0 75 2.2 CALM 0 0 0 0 1005.7 1005.7 0.2
07/01:00am 13.6 13.0 9.1 74 2.3 S 2 6 1 3 1005.9 1005.9 0.2
07/12:30am 13.9 13.7 8.9 72 2.5 CALM 0 0 0 0 1006.2 1006.2 0.2
07/12:00am 14.0 12.6 9.0 72 2.5 SSE 6 9 3 5 1006.6 1006.6 0.2
 
Date/Time
EDT
Temp
°C
App
Temp
°C
Dew
Point
°C
Rel
Hum
%
Delta-T
°C
Wind Press
QNH
hPa
Press
MSL
hPa
Rain since
9am
mm
Dir  Spd
km/h
Gust
km/h
Spd
kts
Gust
kts
06/11:30pm 14.2 13.9 8.6 69 2.8 CALM 0 0 0 0 1007.0 1007.0 0.2
06/11:00pm 14.8 13.3 8.5 66 3.2 S 6 11 3 6 1007.1 1007.1 0.2
06/10:30pm 15.4 13.8 8.2 62 3.6 SE 6 7 3 4 1007.3 1007.3 0.2
06/10:00pm 15.8 14.5 9.2 65 3.4 SSE 6 11 3 6 1007.5 1007.5 0.2
06/09:30pm 16.6 15.1 8.6 59 4.1 SE 6 11 3 6 1007.5 1007.5 0.2
06/09:00pm 17.3 15.7 8.7 57 4.4 SE 7 15 4 8 1007.3 1007.3 0.2
06/08:30pm 17.7 15.8 9.1 57 4.5 SE 9 17 5 9 1007.2 1007.2 0.2
06/08:00pm 18.2 16.2 8.7 54 4.9 SE 9 17 5 9 1007.3 1007.3 0.2
06/07:30pm 19.0 17.0 8.6 51 5.4 SSE 9 15 5 8 1007.3 1007.3 0.2
06/07:00pm 19.5 17.8 8.2 48 5.9 SSE 7 15 4 8 1007.3 1007.3 0.2
06/06:30pm 19.2 17.2 10.2 56 4.8 S 11 15 6 8 1007.4 1007.4 0.2
06/06:00pm 19.0 16.4 9.5 54 5.0 S 13 24 7 13 1007.7 1007.7 0.2
06/05:30pm 18.9 16.1 9.9 56 4.8 S 15 28 8 15 1007.7 1007.7 0.2
06/05:00pm 19.5 16.5 10.8 57 4.7 SSW 17 28 9 15 1008.1 1008.1 0.2
06/04:30pm 18.8 16.3 9.6 55 4.9 SSW 13 24 7 13 1008.5 1008.5 0.2
06/04:00pm 19.4 17.1 10.4 56 4.9 SSW 13 24 7 13 1008.5 1008.5 0.2
06/03:30pm 19.3 17.2 11.1 59 4.5 SSW 13 22 7 12 1008.7 1008.7 0.2
06/03:00pm 19.2 16.8 10.2 56 4.8 S 13 24 7 13 1008.9 1008.9 0.2
06/02:30pm 19.1 15.9 9.9 55 4.9 SSW 17 28 9 15 1009.1 1009.1 0.2
06/02:00pm 19.4 16.3 10.4 56 4.9 SSW 17 28 9 15 1009.6 1009.6 0.2
06/01:30pm 19.0 15.7 9.5 54 5.0 SSW 17 26 9 14 1009.9 1009.9 0.2
06/01:00pm 18.0 15.2 9.9 59 4.3 SSW 15 24 8 13 1010.3 1010.3 0.0
06/12:30pm 18.8 16.6 10.9 60 4.3 SSW 13 22 7 12 1010.5 1010.5 0.0
06/12:00pm 18.1 16.1 10.2 60 4.2 SSW 11 19 6 10 1010.7 1010.7 0.0
06/11:30am 18.2 15.8 8.7 54 4.9 S 11 17 6 9 1010.7 1010.7 0.0
06/11:00am 18.0 15.9 9.9 59 4.3 SE 11 17 6 9 1010.8 1010.8 0.0
06/10:30am 17.6 15.8 9.5 59 4.2 E 9 17 5 9 1011.1 1011.1 0.0
06/10:00am 17.0 15.5 10.4 65 3.5 SE 9 13 5 7 1011.5 1011.5 0.0
06/09:30am 16.2 13.9 10.5 69 3.0 ESE 13 24 7 13 1011.9 1011.9 0.0
06/09:00am 15.5 12.4 10.3 71 2.7 SE 17 26 9 14 1012.1 1012.1 1.2
06/08:30am 14.8 12.7 11.0 78 2.0 SE 13 22 7 12 1012.0 1012.0 1.2
06/08:00am 14.8 13.0 10.8 77 2.1 SE 11 20 6 11 1011.9 1011.9 1.2
06/07:30am 15.2 13.5 11.2 77 2.1 SE 11 19 6 10 1011.4 1011.4 1.2
06/07:00am 14.1 12.8 11.3 83 1.5 SSE 9 19 5 10 1011.2 1011.2 1.2
06/06:30am 14.0 12.9 12.0 88 1.1 SSE 9 15 5 8 1011.2 1011.2 1.2
06/06:00am 13.9 13.2 12.1 89 1.0 S 7 13 4 7 1011.0 1011.0 1.2
06/05:30am 14.0 13.0 12.2 89 1.0 SSE 9 15 5 8 1010.9 1010.9 1.2
06/05:00am 14.1 13.1 12.3 89 1.0 SSE 9 17 5 9 1010.8 1010.8 1.2
06/04:30am 14.3 13.5 12.9 91 0.8 SSE 9 15 5 8 1010.8 1010.8 1.2
06/04:00am 14.1 13.3 12.8 92 0.7 SSE 9 13 5 7 1010.8 1010.8 1.2
06/03:30am 14.2 13.0 12.8 91 0.8 SSE 11 20 6 11 1010.8 1010.8 1.2
06/03:00am 14.8 13.4 13.5 92 0.7 S 13 26 7 14 1010.7 1010.7 1.2
06/02:30am 14.6 13.6 13.5 93 0.6 SSW 11 24 6 13 1010.9 1010.9 1.2
06/02:00am 14.0 13.4 13.4 96 0.3 SW 9 20 5 11 1011.2 1011.2 1.2
06/01:38am 13.8 12.7 13.2 96 0.3 SW 11 26 6 14 1011.5 1011.5 1.2
06/01:30am 13.8 13.2 13.5 98 0.2 SSW 9 19 5 10 1011.5 1011.5 1.2
06/01:00am 13.5 12.7 12.9 96 0.3 SW 9 19 5 10 1011.9 1011.9 0.6
06/12:44am 13.5 11.7 12.2 92 0.7 SW 13 24 7 13 1012.2 1012.2 0.4
06/12:30am 13.5 12.1 12.1 91 0.8 SW 11 22 6 12 1012.4 1012.4 0.4
06/12:00am 14.0 11.6 11.3 84 1.4 SW 15 28 8 15 1012.8 1012.8 0.2
 
Date/Time
EDT
Temp
°C
App
Temp
°C
Dew
Point
°C
Rel
Hum
%
Delta-T
°C
Wind Press
QNH
hPa
Press
MSL
hPa
Rain since
9am
mm
Dir  Spd
km/h
Gust
km/h
Spd
kts
Gust
kts
05/11:30pm 14.1 12.1 11.4 84 1.4 SSW 13 32 7 17 1012.9 1012.9 0.2
05/11:00pm 14.0 11.2 11.2 83 1.5 S 17 32 9 17 1013.3 1013.3 0.2
05/10:30pm 14.0 10.5 11.0 82 1.6 S 20 37 11 20 1013.4 1013.4 0.2
05/10:00pm 13.8 12.3 12.0 89 1.0 SSW 11 24 6 13 1013.4 1013.4 0.2
05/09:30pm 13.7 11.4 11.6 87 1.1 SSW 15 35 8 19 1013.2 1013.2 0.2
05/09:00pm 13.4 11.0 11.5 88 1.0 SSW 15 30 8 16 1013.2 1013.2 0.0
05/08:30pm 13.9 10.9 10.7 81 1.7 SSW 17 41 9 22 1013.1 1013.1 0.0
05/08:00pm 15.1 12.6 9.7 70 2.8 SSW 13 28 7 15 1012.8 1012.8 0.0
05/07:30pm 15.3 12.0 9.7 69 2.9 SSW 17 32 9 17 1012.6 1012.6 0.0
05/07:00pm 15.5 12.7 10.1 70 2.8 S 15 33 8 18 1012.3 1012.3 0.0
05/06:30pm 15.4 12.7 10.2 71 2.7 SSW 15 28 8 15 1012.1 1012.1 0.0
05/06:00pm 15.7 12.5 10.0 69 3.0 SSW 17 33 9 18 1011.9 1011.9 0.0
05/05:30pm 16.2 13.6 10.7 70 2.9 S 15 37 8 20 1011.7 1011.7 0.0
05/05:00pm 16.7 13.7 10.8 68 3.2 SSW 17 35 9 19 1011.6 1011.6 0.0
05/04:30pm 17.6 15.4 10.7 64 3.7 SSW 13 33 7 18 1011.5 1011.5 0.0
05/04:00pm 17.2 13.8 10.6 65 3.5 SSW 19 41 10 22 1011.5 1011.5 0.0
05/03:30pm 17.4 15.8 11.4 68 3.3 SSW 11 28 6 15 1011.5 1011.5 0.0
05/03:00pm 16.3 13.3 10.8 70 2.9 SSW 17 32 9 17 1011.7 1011.7 0.0
05/02:30pm 16.8 14.2 10.6 67 3.3 SSW 15 28 8 15 1011.7 1011.7 0.0
05/02:00pm 16.7 13.4 11.0 69 3.1 S 19 37 10 20 1011.7 1011.7 0.0
05/01:30pm 16.6 14.0 10.7 68 3.1 SSW 15 30 8 16 1011.6 1011.6 0.0
05/01:00pm 16.8 13.7 10.4 66 3.4 S 17 32 9 17 1011.6 1011.6 0.0
05/12:30pm 16.9 13.5 10.5 66 3.4 SSW 19 37 10 20 1011.5 1011.5 0.0
05/12:00pm 17.2 14.6 10.6 65 3.5 S 15 39 8 21 1011.1 1011.1 0.0
05/11:30am 16.7 12.3 10.5 67 3.3 S 24 43 13 23 1010.8 1010.8 0.0
05/11:00am 16.4 14.1 10.5 68 3.1 SSW 13 30 7 16 1010.5 1010.5 0.0
05/10:30am 16.0 12.6 10.7 71 2.8 SSW 19 33 10 18 1010.4 1010.4 0.0
05/10:00am 15.1 12.7 12.6 85 1.4 SSW 17 37 9 20 1010.0 1010.0 0.0
05/09:30am 16.5 13.9 12.1 75 2.4 SSW 17 30 9 16 1009.7 1009.7 0.0
05/09:00am 16.6 14.9 12.6 77 2.2 SSW 13 26 7 14 1009.6 1009.6 0.0
05/08:30am 16.4 14.9 13.1 81 1.8 SSW 13 26 7 14 1009.4 1009.4 0.0
05/08:00am 17.0 15.8 12.7 76 2.4 SSW 11 22 6 12 1009.2 1009.2 0.0
05/07:30am 17.0 15.1 12.9 77 2.3 SSW 15 26 8 14 1008.9 1008.9 0.0
05/07:00am 17.3 16.1 12.8 75 2.5 WSW 11 19 6 10 1008.4 1008.4 0.0
05/06:30am 17.5 16.2 12.6 73 2.7 W 11 24 6 13 1008.5 1008.5 0.0

Latest Capital City Observations: Canberra | Sydney | Melbourne | Brisbane | Adelaide | Perth | Hobart | Darwin

Other formats

Comma delimited format used in spreadsheet applications
http://www.bom.gov.au/fwo/IDV60901/IDV60901.95936.axf

JavaScript Object Notation format (JSON) in row-major order
http://www.bom.gov.au/fwo/IDV60901/IDV60901.95936.json

Data quality

Most of these data are generated automatically and are frequently updated. Quality checks on data are not normally performed. It is possible for incorrect values to appear. Refer to information at About Latest Weather Observations and please check the disclaimer before using these data.